createdAt,value
2023-04-16T00:01:52.218Z,2.92
2023-04-16T00:04:18.875Z,2.22
2023-04-16T00:06:45.728Z,1.65
2023-04-16T00:09:12.184Z,2.28
2023-04-16T00:11:38.749Z,2.65
2023-04-16T00:14:05.740Z,101.28
2023-04-16T00:16:32.332Z,43.75
2023-04-16T00:18:58.760Z,5.82
2023-04-16T00:21:26.390Z,1.70
2023-04-16T00:23:52.872Z,2.35
2023-04-16T00:26:19.306Z,2.45
2023-04-16T00:28:45.748Z,2.65
2023-04-16T00:31:12.167Z,1.88
2023-04-16T00:33:38.601Z,1.88
2023-04-16T00:36:05.287Z,1.75
2023-04-16T00:38:32.492Z,1.73
2023-04-16T00:40:58.972Z,2.38
2023-04-16T00:43:26.726Z,1.95
2023-04-16T00:45:56.368Z,2.00
2023-04-16T00:48:22.981Z,2.17
2023-04-16T00:50:49.522Z,2.08
2023-04-16T00:53:16.467Z,2.20
2023-04-16T00:55:43.760Z,1.98
2023-04-16T00:58:10.336Z,1.73
2023-04-16T01:00:36.767Z,1.75
2023-04-16T01:03:04.933Z,3.17
2023-04-16T01:05:31.472Z,2.50
2023-04-16T01:08:01.197Z,2.47
2023-04-16T01:10:27.725Z,1.95
2023-04-16T01:12:54.294Z,2.70
2023-04-16T01:15:20.835Z,1.98
2023-04-16T01:17:47.522Z,2.08
2023-04-16T01:20:14.611Z,1.92
2023-04-16T01:22:41.098Z,2.30
2023-04-16T01:25:07.612Z,1.45
2023-04-16T01:27:34.190Z,2.03
2023-04-16T01:30:03.124Z,2.13
2023-04-16T01:32:32.751Z,2.25
2023-04-16T01:34:59.223Z,2.50
2023-04-16T01:37:25.869Z,2.17
2023-04-16T01:39:52.454Z,2.30
2023-04-16T01:42:18.822Z,2.97
2023-04-16T01:44:47.324Z,2.47
2023-04-16T01:47:13.717Z,3.08
2023-04-16T01:49:42.657Z,2.00
2023-04-16T01:52:11.741Z,2.80
2023-04-16T01:54:38.120Z,2.75
2023-04-16T01:57:04.617Z,2.90
2023-04-16T01:59:31.437Z,2.20
2023-04-16T02:02:05.003Z,2.65
2023-04-16T02:04:32.172Z,2.92
2023-04-16T02:07:00.200Z,2.92
2023-04-16T02:09:26.599Z,3.20
2023-04-16T02:11:53.123Z,3.22
2023-04-16T02:14:19.677Z,2.55
2023-04-16T02:16:46.565Z,2.30
2023-04-16T02:19:13.028Z,2.72
2023-04-16T02:21:40.022Z,2.90
2023-04-16T02:24:06.433Z,3.38
2023-04-16T02:26:33.192Z,3.20
2023-04-16T02:28:59.609Z,2.85
2023-04-16T02:31:26.300Z,4.30
2023-04-16T02:33:52.747Z,3.42
2023-04-16T02:36:19.225Z,3.25
2023-04-16T02:38:46.377Z,3.42
2023-04-16T02:41:12.768Z,4.32
2023-04-16T02:43:39.210Z,3.85
2023-04-16T02:46:05.958Z,4.53
2023-04-16T02:48:32.825Z,2.90
2023-04-16T02:50:59.414Z,4.40
2023-04-16T02:53:25.869Z,4.28
2023-04-16T02:55:54.032Z,4.30
2023-04-16T02:58:21.909Z,3.85
2023-04-16T03:00:48.446Z,4.47
2023-04-16T03:03:15.030Z,3.15
2023-04-16T03:05:41.640Z,3.88
2023-04-16T03:08:08.405Z,3.83
2023-04-16T03:10:36.208Z,3.88
2023-04-16T03:13:05.267Z,3.78
2023-04-16T03:15:31.808Z,3.80
2023-04-16T03:17:59.306Z,3.88
2023-04-16T03:20:25.929Z,4.95
2023-04-16T03:22:52.380Z,4.10
2023-04-16T03:25:19.069Z,4.20
2023-04-16T03:27:45.652Z,4.80
2023-04-16T03:30:13.187Z,5.63
2023-04-16T03:32:41.900Z,4.05
2023-04-16T03:35:09.607Z,4.57
2023-04-16T03:37:36.141Z,5.13
2023-04-16T03:40:03.635Z,4.53
2023-04-16T03:42:30.112Z,4.85
2023-04-16T03:44:57.299Z,6.72
2023-04-16T03:47:23.741Z,5.25
2023-04-16T03:49:50.927Z,6.45
2023-04-16T03:52:17.362Z,6.03
2023-04-16T03:54:43.848Z,5.65
2023-04-16T03:57:10.304Z,4.88
2023-04-16T03:59:36.702Z,5.78
2023-04-16T04:02:03.145Z,6.45
2023-04-16T04:04:29.629Z,5.72
2023-04-16T04:06:56.329Z,7.10
2023-04-16T04:09:22.783Z,5.88
2023-04-16T04:11:50.501Z,7.20
2023-04-16T04:14:17.269Z,6.30
2023-04-16T04:16:43.784Z,8.05
2023-04-16T04:19:10.478Z,6.68
2023-04-16T04:21:37.086Z,7.00
2023-04-16T04:24:03.562Z,9.32
2023-04-16T04:26:30.034Z,8.32
2023-04-16T04:28:56.525Z,6.93
2023-04-16T04:31:22.963Z,8.43
2023-04-16T04:33:49.338Z,8.18
2023-04-16T04:36:16.026Z,7.97
2023-04-16T04:38:42.462Z,9.55
2023-04-16T04:41:08.958Z,8.40
2023-04-16T04:43:35.475Z,8.52
2023-04-16T04:46:01.908Z,8.25
2023-04-16T04:48:28.505Z,10.75
2023-04-16T04:50:54.956Z,10.45
2023-04-16T04:53:21.472Z,9.48
2023-04-16T04:55:50.921Z,9.85
2023-04-16T04:58:19.526Z,10.30
2023-04-16T05:00:47.192Z,12.05
2023-04-16T05:03:19.971Z,10.00
2023-04-16T05:05:46.514Z,10.00
2023-04-16T05:08:13.086Z,11.57
2023-04-16T05:10:39.513Z,11.15
2023-04-16T05:13:05.908Z,9.90
2023-04-16T05:15:32.442Z,10.50
2023-04-16T05:17:59.010Z,8.95
2023-04-16T05:20:25.542Z,10.07
2023-04-16T05:22:55.405Z,11.40
2023-04-16T05:25:22.311Z,10.70
2023-04-16T05:27:48.748Z,9.65
2023-04-16T05:30:15.478Z,9.77
2023-04-16T05:32:41.980Z,8.35
2023-04-16T05:35:09.658Z,10.20
2023-04-16T05:37:36.058Z,9.30
2023-04-16T05:40:02.574Z,10.25
2023-04-16T05:42:29.027Z,9.57
2023-04-16T05:44:55.509Z,9.77
2023-04-16T05:47:22.020Z,9.80
2023-04-16T05:49:48.535Z,8.65
2023-04-16T05:52:15.376Z,9.68
2023-04-16T05:54:42.275Z,9.30
2023-04-16T05:57:08.691Z,10.50
2023-04-16T05:59:35.307Z,9.30
2023-04-16T06:02:01.790Z,10.00
2023-04-16T06:04:28.269Z,8.98
2023-04-16T06:06:57.388Z,8.73
2023-04-16T06:09:24.677Z,7.88
2023-04-16T06:11:51.143Z,8.43
2023-04-16T06:14:17.612Z,9.90
2023-04-16T06:16:44.087Z,9.30
2023-04-16T06:19:10.792Z,9.57
2023-04-16T06:21:38.191Z,10.38
2023-04-16T06:24:05.012Z,9.52
2023-04-16T06:26:31.529Z,9.30
2023-04-16T06:29:00.797Z,8.35
2023-04-16T06:31:27.285Z,9.95
2023-04-16T06:33:53.731Z,9.43
2023-04-16T06:36:20.208Z,9.13
2023-04-16T06:38:46.675Z,7.57
2023-04-16T06:41:14.284Z,9.10
2023-04-16T06:43:40.852Z,9.95
2023-04-16T06:46:07.270Z,7.57
2023-04-16T06:48:33.806Z,8.10
2023-04-16T06:51:00.396Z,8.95
2023-04-16T06:53:26.921Z,6.65
2023-04-16T06:55:53.436Z,6.68
2023-04-16T06:58:21.293Z,7.90
2023-04-16T07:00:47.878Z,8.65
2023-04-16T07:03:14.516Z,8.73
2023-04-16T07:05:41.256Z,8.60
2023-04-16T07:08:07.720Z,8.18
2023-04-16T07:10:34.333Z,11.13
2023-04-16T07:13:01.693Z,8.20
2023-04-16T07:15:28.453Z,7.45
2023-04-16T07:17:55.081Z,7.88
2023-04-16T07:20:21.609Z,9.15
2023-04-16T07:22:51.155Z,8.75
2023-04-16T07:25:17.609Z,7.45
2023-04-16T07:27:44.327Z,8.23
2023-04-16T07:30:11.194Z,7.95
2023-04-16T07:32:38.017Z,7.35
2023-04-16T07:35:04.999Z,7.80
2023-04-16T07:37:31.454Z,7.35
2023-04-16T07:39:57.981Z,8.02
2023-04-16T07:42:24.581Z,6.70
2023-04-16T07:44:51.172Z,6.85
2023-04-16T07:47:17.584Z,7.60
2023-04-16T07:49:44.172Z,8.07
2023-04-16T07:52:11.022Z,8.50
2023-04-16T07:54:37.623Z,7.60
2023-04-16T07:57:06.509Z,7.80
2023-04-16T07:59:32.941Z,7.78
2023-04-16T08:01:59.524Z,8.48
2023-04-16T08:04:26.664Z,7.57
2023-04-16T08:06:53.859Z,6.57
2023-04-16T08:09:27.172Z,6.63
2023-04-16T08:11:53.578Z,6.60
2023-04-16T08:14:20.385Z,5.53
2023-04-16T08:16:47.167Z,5.68
2023-04-16T08:19:13.544Z,5.70
2023-04-16T08:21:40.360Z,5.57
2023-04-16T08:24:06.979Z,5.97
2023-04-16T08:26:33.551Z,6.22
2023-04-16T08:29:00.068Z,5.30
2023-04-16T08:31:26.706Z,5.70
2023-04-16T08:33:53.262Z,4.68
2023-04-16T08:36:19.772Z,4.70
2023-04-16T08:38:46.490Z,4.65
2023-04-16T08:41:14.041Z,4.88
2023-04-16T08:43:44.544Z,4.28
2023-04-16T08:46:12.126Z,5.93
2023-04-16T08:48:38.756Z,4.32
2023-04-16T08:51:10.406Z,5.72
2023-04-16T08:53:47.907Z,5.95
2023-04-16T08:56:15.763Z,5.72
2023-04-16T08:58:42.347Z,4.22
2023-04-16T09:01:10.939Z,4.93
2023-04-16T09:03:38.038Z,4.82
2023-04-16T09:06:06.462Z,4.85
2023-04-16T09:08:36.022Z,4.00
2023-04-16T09:11:03.232Z,3.65
2023-04-16T09:13:31.707Z,4.88
2023-04-16T09:15:58.692Z,4.40
2023-04-16T09:18:26.843Z,3.28
2023-04-16T09:20:53.511Z,5.35
2023-04-16T09:23:19.993Z,3.13
2023-04-16T09:25:48.253Z,3.63
2023-04-16T09:28:50.182Z,3.67
2023-04-16T09:31:18.185Z,3.47
2023-04-16T09:34:01.563Z,4.05
2023-04-16T09:36:28.275Z,3.90
2023-04-16T09:38:57.554Z,3.78
2023-04-16T09:41:32.293Z,4.28
2023-04-16T09:44:00.962Z,4.13
2023-04-16T09:46:33.758Z,3.97
2023-04-16T09:49:10.606Z,3.42
2023-04-16T09:51:47.926Z,4.10
2023-04-16T09:54:14.408Z,3.92
2023-04-16T09:56:46.320Z,3.20
2023-04-16T09:59:23.409Z,3.75
2023-04-16T10:01:50.383Z,4.18
2023-04-16T10:04:17.105Z,3.05
2023-04-16T10:06:44.145Z,3.95
2023-04-16T10:09:11.028Z,3.70
2023-04-16T10:11:37.737Z,4.57
2023-04-16T10:14:04.199Z,4.63
2023-04-16T10:16:31.119Z,4.13
2023-04-16T10:18:58.868Z,4.47
2023-04-16T10:21:26.453Z,4.32
2023-04-16T10:23:53.358Z,4.40
2023-04-16T10:26:20.385Z,4.68
2023-04-16T10:28:47.098Z,4.78
2023-04-16T10:31:13.937Z,4.50
2023-04-16T10:33:42.213Z,4.60
2023-04-16T10:36:17.644Z,4.90
2023-04-16T10:38:49.296Z,5.50
2023-04-16T10:41:16.254Z,6.07
2023-04-16T10:43:44.909Z,5.28
2023-04-16T10:46:30.816Z,6.50
2023-04-16T10:49:01.419Z,6.55
2023-04-16T10:51:34.387Z,8.05
2023-04-16T10:54:20.002Z,6.60
2023-04-16T10:56:47.466Z,9.27
2023-04-16T10:59:18.872Z,7.95
2023-04-16T11:01:47.296Z,7.10
2023-04-16T11:04:19.683Z,8.02
2023-04-16T11:07:07.008Z,7.63
2023-04-16T11:09:51.899Z,8.13
2023-04-16T11:12:21.269Z,6.93
2023-04-16T11:15:11.284Z,7.07
2023-04-16T11:17:45.163Z,7.55
2023-04-16T11:20:22.849Z,8.15
2023-04-16T11:22:53.657Z,6.85
2023-04-16T11:25:27.798Z,8.20
2023-04-16T11:27:54.792Z,6.85
2023-04-16T11:30:40.674Z,8.98
2023-04-16T11:33:12.026Z,7.95
2023-04-16T11:35:39.876Z,8.65
2023-04-16T11:38:07.316Z,8.85
2023-04-16T11:40:34.169Z,7.15
2023-04-16T11:43:13.846Z,7.00
2023-04-16T11:45:54.986Z,6.55
2023-04-16T11:48:21.955Z,7.47
2023-04-16T11:50:56.242Z,8.60
2023-04-16T11:53:22.686Z,8.93
2023-04-16T11:55:49.181Z,8.00
2023-04-16T11:58:19.347Z,10.45
2023-04-16T12:00:46.582Z,8.82
2023-04-16T12:03:13.344Z,10.30
2023-04-16T12:05:40.680Z,7.35
2023-04-16T12:08:11.751Z,9.48
2023-04-16T12:10:53.622Z,8.40
2023-04-16T12:13:20.255Z,7.85
2023-04-16T12:15:54.804Z,9.38
2023-04-16T12:18:23.274Z,7.82
2023-04-16T12:20:51.290Z,9.07
2023-04-16T12:23:27.720Z,8.68
2023-04-16T12:25:55.397Z,6.38
2023-04-16T12:28:34.331Z,7.15
2023-04-16T12:31:03.326Z,6.35
2023-04-16T12:33:29.944Z,7.50
2023-04-16T12:35:56.805Z,8.57
2023-04-16T12:38:24.712Z,7.53
2023-04-16T12:40:51.786Z,7.72
2023-04-16T12:43:19.691Z,7.80
2023-04-16T12:45:46.378Z,8.60
2023-04-16T12:48:12.837Z,9.88
2023-04-16T12:50:39.821Z,8.45
2023-04-16T12:53:06.352Z,8.20
2023-04-16T12:55:32.833Z,9.88
2023-04-16T12:57:59.260Z,9.13
2023-04-16T13:00:25.813Z,9.27
2023-04-16T13:02:52.422Z,8.95
2023-04-16T13:05:19.362Z,10.45
2023-04-16T13:07:46.125Z,9.20
2023-04-16T13:10:13.661Z,9.63
2023-04-16T13:12:40.285Z,11.93
2023-04-16T13:15:07.317Z,9.57
2023-04-16T13:17:33.909Z,8.63
2023-04-16T13:20:00.428Z,10.25
2023-04-16T13:22:26.961Z,8.70
2023-04-16T13:24:53.548Z,9.13
2023-04-16T13:27:20.397Z,9.23
2023-04-16T13:29:47.132Z,9.98
2023-04-16T13:32:14.639Z,10.80
2023-04-16T13:34:41.203Z,10.27
2023-04-16T13:37:07.668Z,8.98
2023-04-16T13:39:36.291Z,9.65
2023-04-16T13:42:02.873Z,9.30
2023-04-16T13:44:29.451Z,9.63
2023-04-16T13:46:56.228Z,10.10
2023-04-16T13:49:23.452Z,10.20
2023-04-16T13:51:50.208Z,10.18
2023-04-16T13:54:16.749Z,8.98
2023-04-16T13:56:43.344Z,10.82
2023-04-16T13:59:10.071Z,9.38
2023-04-16T14:01:36.705Z,9.75
2023-04-16T14:04:06.479Z,9.95
2023-04-16T14:06:34.502Z,9.00
2023-04-16T14:09:01.250Z,8.25
2023-04-16T14:11:27.750Z,10.23
2023-04-16T14:13:54.819Z,9.00
2023-04-16T14:16:21.513Z,8.85
2023-04-16T14:18:48.273Z,10.57
2023-04-16T14:21:14.851Z,9.48
2023-04-16T14:23:41.536Z,9.40
2023-04-16T14:26:08.198Z,10.77
2023-04-16T14:28:35.789Z,9.65
2023-04-16T14:31:02.495Z,9.85
2023-04-16T14:33:29.232Z,9.23
2023-04-16T14:35:55.817Z,8.55
2023-04-16T14:38:22.298Z,7.00
2023-04-16T14:40:48.951Z,9.07
2023-04-16T14:43:15.446Z,8.63
2023-04-16T14:45:42.245Z,8.65
2023-04-16T14:48:08.796Z,10.23
2023-04-16T14:50:39.149Z,9.18
2023-04-16T14:53:05.964Z,10.05
2023-04-16T14:55:32.693Z,9.50
2023-04-16T14:57:59.632Z,8.90
2023-04-16T15:00:27.482Z,9.23
2023-04-16T15:02:55.294Z,10.30
2023-04-16T15:05:22.293Z,9.30
2023-04-16T15:07:48.874Z,9.00
2023-04-16T15:10:15.652Z,8.73
2023-04-16T15:12:43.181Z,9.93
2023-04-16T15:15:12.917Z,10.10
2023-04-16T15:17:39.607Z,9.15
2023-04-16T15:20:10.398Z,10.23
2023-04-16T15:22:36.927Z,10.77
2023-04-16T15:25:03.850Z,10.48
2023-04-16T15:27:30.546Z,9.18
2023-04-16T15:29:56.962Z,10.25
2023-04-16T15:32:23.552Z,11.25
2023-04-16T15:34:50.096Z,10.43
2023-04-16T15:37:16.761Z,10.65
2023-04-16T15:39:43.220Z,13.35
2023-04-16T15:42:11.134Z,10.75
2023-04-16T15:44:37.829Z,10.52
2023-04-16T15:47:06.291Z,10.82
2023-04-16T15:49:32.738Z,10.07
2023-04-16T15:51:59.378Z,10.35
2023-04-16T15:54:26.047Z,12.45
2023-04-16T15:56:52.477Z,11.65
2023-04-16T15:59:19.072Z,9.60
2023-04-16T16:01:45.862Z,11.55
2023-04-16T16:04:12.432Z,11.20
2023-04-16T16:06:39.038Z,11.00
2023-04-16T16:09:05.521Z,10.82
2023-04-16T16:11:32.580Z,11.48
2023-04-16T16:14:01.354Z,12.27
2023-04-16T16:16:28.774Z,12.70
2023-04-16T16:18:55.772Z,12.45
2023-04-16T16:21:22.338Z,10.13
2023-04-16T16:23:48.859Z,12.13
2023-04-16T16:26:15.457Z,11.77
2023-04-16T16:28:43.820Z,12.90
2023-04-16T16:31:12.230Z,11.07
2023-04-16T16:33:40.458Z,11.25
2023-04-16T16:36:10.769Z,11.68
2023-04-16T16:38:37.986Z,10.27
2023-04-16T16:41:06.286Z,11.13
2023-04-16T16:43:33.322Z,12.98
2023-04-16T16:45:59.814Z,12.52
2023-04-16T16:48:26.390Z,11.15
2023-04-16T16:50:52.824Z,12.52
2023-04-16T16:53:19.204Z,9.70
2023-04-16T16:55:45.765Z,13.02
2023-04-16T16:58:12.175Z,10.52
2023-04-16T17:00:38.646Z,12.70
2023-04-16T17:03:05.268Z,13.07
2023-04-16T17:05:31.855Z,11.93
2023-04-16T17:07:58.508Z,13.07
2023-04-16T17:10:25.382Z,14.18
2023-04-16T17:12:51.958Z,13.23
2023-04-16T17:15:21.419Z,12.50
2023-04-16T17:17:48.566Z,12.40
2023-04-16T17:20:15.562Z,12.48
2023-04-16T17:22:51.612Z,14.20
2023-04-16T17:25:18.195Z,13.25
2023-04-16T17:27:44.701Z,12.15
2023-04-16T17:30:11.372Z,12.35
2023-04-16T17:32:40.342Z,10.20
2023-04-16T17:35:08.777Z,13.18
2023-04-16T17:37:35.477Z,12.50
2023-04-16T17:40:05.566Z,14.13
2023-04-16T17:42:32.023Z,12.32
2023-04-16T17:44:58.444Z,13.35
2023-04-16T17:47:24.913Z,11.98
2023-04-16T17:49:55.455Z,12.38
2023-04-16T17:52:22.861Z,12.32
2023-04-16T17:54:49.690Z,12.73
2023-04-16T17:57:16.487Z,13.45
2023-04-16T17:59:42.938Z,13.55
2023-04-16T18:02:09.419Z,13.40
2023-04-16T18:04:36.268Z,11.82
2023-04-16T18:07:02.788Z,14.70
2023-04-16T18:09:29.995Z,13.48
2023-04-16T18:11:57.089Z,13.77
2023-04-16T18:14:23.740Z,14.60
2023-04-16T18:16:50.321Z,12.55
2023-04-16T18:19:16.745Z,11.32
2023-04-16T18:21:43.315Z,13.05
2023-04-16T18:24:10.401Z,12.45
2023-04-16T18:26:37.560Z,13.57
2023-04-16T18:29:04.954Z,13.43
2023-04-16T18:31:32.060Z,13.70
2023-04-16T18:34:01.573Z,15.45
2023-04-16T18:36:28.288Z,16.48
2023-04-16T18:39:02.209Z,14.07
2023-04-16T18:41:29.946Z,15.85
2023-04-16T18:43:56.649Z,12.70
2023-04-16T18:46:23.218Z,15.30
2023-04-16T18:48:49.833Z,14.73
2023-04-16T18:51:16.705Z,15.15
2023-04-16T18:53:45.388Z,17.70
2023-04-16T18:56:12.187Z,14.10
2023-04-16T18:58:38.601Z,13.15
2023-04-16T19:01:07.726Z,15.35
2023-04-16T19:03:34.999Z,13.43
2023-04-16T19:06:01.871Z,14.65
2023-04-16T19:08:28.817Z,16.33
2023-04-16T19:10:55.205Z,16.52
2023-04-16T19:13:21.582Z,17.10
2023-04-16T19:15:48.075Z,16.00
2023-04-16T19:18:14.579Z,16.30
2023-04-16T19:20:41.220Z,16.35
2023-04-16T19:23:09.073Z,20.85
2023-04-16T19:25:36.486Z,18.20
2023-04-16T19:28:03.858Z,21.08
2023-04-16T19:30:30.913Z,18.83
2023-04-16T19:32:57.493Z,20.10
2023-04-16T19:35:24.012Z,17.85
2023-04-16T19:37:50.849Z,20.25
2023-04-16T19:40:17.413Z,18.98
2023-04-16T19:42:45.499Z,18.42
2023-04-16T19:45:12.294Z,17.75
2023-04-16T19:47:38.731Z,18.30
2023-04-16T19:50:05.790Z,19.25
2023-04-16T19:52:37.313Z,17.10
2023-04-16T19:55:04.471Z,17.02
2023-04-16T19:57:30.990Z,18.98
2023-04-16T20:00:00.265Z,18.23
2023-04-16T20:02:27.079Z,19.77
2023-04-16T20:04:53.929Z,19.20
2023-04-16T20:07:20.559Z,19.60
2023-04-16T20:09:47.165Z,19.85
2023-04-16T20:12:14.286Z,18.85
2023-04-16T20:14:41.906Z,17.77
2023-04-16T20:17:09.928Z,20.23
2023-04-16T20:19:40.539Z,20.50
2023-04-16T20:22:07.074Z,16.85
2023-04-16T20:24:34.314Z,16.83
2023-04-16T20:27:01.691Z,17.92
2023-04-16T20:29:28.074Z,19.20
2023-04-16T20:31:54.500Z,17.60
2023-04-16T20:34:21.035Z,21.20
2023-04-16T20:36:47.493Z,16.95
2023-04-16T20:39:14.002Z,19.00
2023-04-16T20:41:43.776Z,18.98
2023-04-16T20:44:10.685Z,17.45
2023-04-16T20:46:40.136Z,19.90
2023-04-16T20:49:08.179Z,17.92
2023-04-16T20:51:35.494Z,19.48
2023-04-16T20:54:02.910Z,18.65
2023-04-16T20:56:29.374Z,17.90
2023-04-16T20:58:56.104Z,20.00
2023-04-16T21:01:22.567Z,17.58
2023-04-16T21:03:49.113Z,19.02
2023-04-16T21:06:17.655Z,18.67
2023-04-16T21:08:44.489Z,15.93
2023-04-16T21:11:11.215Z,19.17
2023-04-16T21:13:37.632Z,19.83
2023-04-16T21:16:04.992Z,17.00
2023-04-16T21:18:31.521Z,19.05
2023-04-16T21:20:58.932Z,19.40
2023-04-16T21:23:25.444Z,17.48
2023-04-16T21:25:51.810Z,18.15
2023-04-16T21:28:18.176Z,16.83
2023-04-16T21:30:44.761Z,17.70
2023-04-16T21:33:12.853Z,18.35
2023-04-16T21:35:39.301Z,17.70
2023-04-16T21:38:05.949Z,17.63
2023-04-16T21:40:32.443Z,19.13
2023-04-16T21:42:58.853Z,14.93
2023-04-16T21:45:25.210Z,17.92
2023-04-16T21:47:51.794Z,18.33
2023-04-16T21:50:18.382Z,18.27
2023-04-16T21:52:46.801Z,16.77
2023-04-16T21:55:14.466Z,19.30
2023-04-16T21:57:41.042Z,18.83
2023-04-16T22:00:12.030Z,18.13
2023-04-16T22:02:38.684Z,16.35
2023-04-16T22:05:08.867Z,18.88
2023-04-16T22:07:36.646Z,16.27
2023-04-16T22:10:08.843Z,17.77
2023-04-16T22:15:08.230Z,16.67
2023-04-16T22:17:34.883Z,17.42
2023-04-16T22:20:13.119Z,16.35
2023-04-16T22:22:42.018Z,17.20
2023-04-16T22:25:09.219Z,17.88
2023-04-16T22:27:38.885Z,17.63
2023-04-16T22:30:07.123Z,15.38
2023-04-16T22:32:34.822Z,19.65
2023-04-16T22:35:01.916Z,19.45
2023-04-16T22:37:28.323Z,18.23
2023-04-16T22:39:54.756Z,19.02
2023-04-16T22:42:21.508Z,17.55
2023-04-16T22:44:47.974Z,18.00
2023-04-16T22:47:14.448Z,17.80
2023-04-16T22:49:40.802Z,18.98
2023-04-16T22:52:07.516Z,21.55
2023-04-16T22:54:33.945Z,21.55
2023-04-16T22:57:09.643Z,18.95
2023-04-16T22:59:36.214Z,19.17
2023-04-16T23:02:02.946Z,18.83
2023-04-16T23:04:29.537Z,17.13
2023-04-16T23:06:56.175Z,18.55
2023-04-16T23:09:23.265Z,18.88
2023-04-16T23:11:49.732Z,18.15
2023-04-16T23:14:16.929Z,18.70
2023-04-16T23:16:43.433Z,17.45
2023-04-16T23:19:14.788Z,18.38
2023-04-16T23:21:42.381Z,18.55
2023-04-16T23:24:09.093Z,17.35
2023-04-16T23:26:35.609Z,15.38
2023-04-16T23:29:02.041Z,15.52
2023-04-16T23:31:28.540Z,16.67
2023-04-16T23:33:55.279Z,17.38
2023-04-16T23:36:21.750Z,17.42
2023-04-16T23:38:48.794Z,17.08
2023-04-16T23:41:15.618Z,16.48
2023-04-16T23:43:42.047Z,18.60
2023-04-16T23:46:08.551Z,19.15
2023-04-16T23:48:35.152Z,19.58
2023-04-16T23:51:01.652Z,18.08
2023-04-16T23:53:28.065Z,17.73
2023-04-16T23:55:54.622Z,18.27
2023-04-16T23:58:21.252Z,16.92
